Time;durP1;ratioP1;P1;durP2;ratioP2;P2;SDS_P1;SDS_P2;PMS_P1;PMS_P2;Temp;Humidity;BMP_temperature;BMP_pressure;BME280_temperature;BME280_humidity;BME280_pressure;Samples;Min_cycle;Max_cycle;Signal;HPM_P1;HPM_P2
2022/12/30 00:00:56;;;;;;;;;;;;;;;20.32;53.93;100334.78;5021622;28;4176;-62
2022/12/30 00:03:23;;;;;;;;;;;;;;;20.31;53.88;100350.53;5008847;28;5184;-62
2022/12/30 00:05:49;;;;;;;;;;;;;;;20.30;54.13;100363.44;5016378;28;3894;-62
2022/12/30 00:11:01;;;;;;;;;;;;;;;20.29;53.94;100371.34;5013706;28;5169;-62
2022/12/30 00:35:32;;;;;;;;;;;;;;;20.24;53.72;100409.22;5016758;28;4303;-64
2022/12/30 00:37:59;;;;;;;;;;;;;;;20.24;53.65;100407.06;5008651;28;4189;-62
2022/12/30 00:40:25;;;;;;;;;;;;;;;20.25;53.50;100404.94;5002076;28;4247;-62
2022/12/30 00:43:10;;;;;;;;;;;;;;;20.24;53.59;100403.47;5012361;28;4702;-62
2022/12/30 00:45:40;;;;;;;;;;;;;;;20.24;53.55;100414.97;5014886;28;4223;-61
2022/12/30 00:56:21;;;;;;;;;;;;;;;20.21;53.19;100417.00;5022855;28;5232;-62
2022/12/30 00:58:47;;;;;;;;;;;;;;;20.21;53.32;100414.13;5019271;28;4009;-62
2022/12/30 01:01:14;;;;;;;;;;;;;;;20.23;53.00;100419.25;5017159;28;4008;-62
2022/12/30 01:03:40;;;;;;;;;;;;;;;20.21;53.23;100410.53;5013167;28;5201;-62
2022/12/30 01:06:07;;;;;;;;;;;;;;;20.20;53.14;100421.31;5019446;28;4363;-62
2022/12/30 01:08:33;;;;;;;;;;;;;;;20.20;53.13;100438.56;5015122;28;4017;-62
2022/12/30 01:11:04;;;;;;;;;;;;;;;20.20;53.28;100450.03;5016452;28;4325;-65
2022/12/30 01:13:30;;;;;;;;;;;;;;;20.20;53.16;100443.53;5019406;28;4332;-62
2022/12/30 01:15:57;;;;;;;;;;;;;;;20.18;53.02;100441.34;5015543;28;4183;-62
2022/12/30 01:18:23;;;;;;;;;;;;;;;20.18;52.84;100463.56;5016995;28;4199;-62
2022/12/30 01:20:49;;;;;;;;;;;;;;;20.17;52.89;100450.63;5018717;28;4181;-62
2022/12/30 01:23:16;;;;;;;;;;;;;;;20.17;53.23;100473.59;5011544;28;4399;-63
2022/12/30 01:25:42;;;;;;;;;;;;;;;20.16;53.09;100457.75;5019079;28;4116;-62
2022/12/30 01:28:08;;;;;;;;;;;;;;;20.15;53.07;100473.53;5015710;28;5328;-62
2022/12/30 01:30:35;;;;;;;;;;;;;;;20.15;53.12;100482.88;5023077;28;4147;-62
2022/12/30 01:33:01;;;;;;;;;;;;;;;20.15;52.94;100491.50;5017253;28;4147;-63
2022/12/30 01:35:27;;;;;;;;;;;;;;;20.16;53.03;100495.09;5022411;28;4392;-63
2022/12/30 01:37:57;;;;;;;;;;;;;;;20.15;52.92;100494.38;5023515;28;4157;-62
2022/12/30 01:40:23;;;;;;;;;;;;;;;20.14;52.78;100497.94;5020781;28;4271;-63
2022/12/30 01:42:51;;;;;;;;;;;;;;;20.13;52.86;100505.06;5019388;28;4145;-63
2022/12/30 01:45:23;;;;;;;;;;;;;;;20.13;52.87;100516.56;5020211;28;4142;-64
2022/12/30 01:48:08;;;;;;;;;;;;;;;20.14;52.96;100526.66;5017230;28;4292;-63
2022/12/30 01:50:51;;;;;;;;;;;;;;;20.16;53.00;100521.75;5011066;28;4181;-63
2022/12/30 01:53:18;;;;;;;;;;;;;;;20.17;53.37;100528.97;5015758;28;4081;-62
2022/12/30 01:55:58;;;;;;;;;;;;;;;20.17;53.64;100539.72;5018923;28;5240;-63
2022/12/30 01:58:25;;;;;;;;;;;;;;;20.15;53.81;100533.88;5013183;28;4131;-63
2022/12/30 02:00:52;;;;;;;;;;;;;;;20.14;53.62;100543.91;5022363;28;5340;-63
2022/12/30 02:03:18;;;;;;;;;;;;;;;20.13;53.69;100548.16;5016185;28;4130;-63
2022/12/30 02:05:45;;;;;;;;;;;;;;;20.09;53.83;100552.38;5019988;28;4298;-63
2022/12/30 02:08:12;;;;;;;;;;;;;;;20.12;53.57;100558.94;5019807;28;5238;-63
2022/12/30 02:10:38;;;;;;;;;;;;;;;20.12;53.63;100563.97;5017427;28;4138;-63
2022/12/30 02:13:05;;;;;;;;;;;;;;;20.10;53.66;100567.47;5018537;28;5439;-63
2022/12/30 02:15:35;;;;;;;;;;;;;;;20.09;53.68;100566.75;5018978;28;4037;-63
2022/12/30 02:18:08;;;;;;;;;;;;;;;20.08;53.79;100571.00;5016474;28;5266;-62
2022/12/30 02:20:44;;;;;;;;;;;;;;;20.07;53.73;100563.03;4997844;28;4045;-63
2022/12/30 02:23:16;;;;;;;;;;;;;;;20.08;53.57;100565.25;5019553;28;5312;-63
2022/12/30 02:26:01;;;;;;;;;;;;;;;20.08;53.51;100582.50;5017998;28;4126;-63
2022/12/30 02:28:40;;;;;;;;;;;;;;;20.08;53.42;100576.75;5016533;28;4143;-63
2022/12/30 02:31:06;;;;;;;;;;;;;;;20.07;53.54;100575.28;5010897;28;4281;-63
2022/12/30 02:33:32;;;;;;;;;;;;;;;20.06;53.40;100573.78;5011279;28;4162;-63
2022/12/30 02:36:11;;;;;;;;;;;;;;;20.06;53.39;100568.03;5018314;28;4084;-63
2022/12/30 02:38:38;;;;;;;;;;;;;;;20.06;53.49;100579.53;4992875;28;4208;-64
2022/12/30 02:46:53;;;;;;;;;;;;;;;20.04;53.29;100579.47;4999211;28;4216;-63
2022/12/30 02:49:19;;;;;;;;;;;;;;;20.05;53.18;100577.31;5018126;28;5588;-63
2022/12/30 02:54:34;;;;;;;;;;;;;;;20.04;53.22;100585.22;5000164;28;4144;-63
2022/12/30 02:57:00;;;;;;;;;;;;;;;20.02;53.09;100587.22;5015479;28;5214;-63
2022/12/30 03:05:28;;;;;;;;;;;;;;;20.02;53.14;100590.09;5002695;28;5391;-62
2022/12/30 03:11:47;;;;;;;;;;;;;;;20.00;53.23;100599.41;5007341;28;5451;-63
2022/12/30 03:14:22;;;;;;;;;;;;;;;20.00;53.08;100605.16;4984260;28;4235;-62
2022/12/30 03:16:50;;;;;;;;;;;;;;;20.00;52.98;100595.78;5009897;28;5527;-62
2022/12/30 03:19:17;;;;;;;;;;;;;;;19.98;52.99;100601.44;4989310;28;5226;-62
2022/12/30 03:21:44;;;;;;;;;;;;;;;19.97;53.21;100606.44;4998828;28;4205;-62
2022/12/30 03:27:03;;;;;;;;;;;;;;;19.98;53.17;100607.94;4998177;28;4084;-62
2022/12/30 03:29:34;;;;;;;;;;;;;;;19.98;53.04;100612.94;4997608;28;5128;-62
2022/12/30 03:32:01;;;;;;;;;;;;;;;19.97;52.95;100617.94;5015839;28;3982;-63
2022/12/30 03:34:27;;;;;;;;;;;;;;;19.97;52.86;100617.94;5017504;28;4031;-63
2022/12/30 03:36:56;;;;;;;;;;;;;;;19.97;53.03;100614.31;5014201;28;4149;-63
2022/12/30 03:39:30;;;;;;;;;;;;;;;19.95;52.88;100626.47;5012050;28;4150;-63
2022/12/30 03:41:57;;;;;;;;;;;;;;;19.95;52.81;100626.47;4992450;28;4195;-63
2022/12/30 03:44:23;;;;;;;;;;;;;;;19.95;52.92;100626.47;4999267;28;3994;-63
2022/12/30 03:46:49;;;;;;;;;;;;;;;19.94;52.99;100636.47;4995600;28;4199;-63
2022/12/30 03:49:16;;;;;;;;;;;;;;;19.95;52.82;100637.97;5021032;28;4193;-63
2022/12/30 03:51:42;;;;;;;;;;;;;;;19.94;52.81;100636.47;5012971;28;4189;-63
2022/12/30 03:54:08;;;;;;;;;;;;;;;19.93;52.70;100637.88;5020535;28;4120;-63
2022/12/30 03:56:35;;;;;;;;;;;;;;;19.94;52.67;100639.34;5018185;28;4895;-63
2022/12/30 03:59:01;;;;;;;;;;;;;;;19.96;52.61;100639.44;5021670;28;4189;-63
2022/12/30 04:01:27;;;;;;;;;;;;;;;19.98;52.83;100636.66;5022784;28;4178;-63
2022/12/30 04:03:54;;;;;;;;;;;;;;;19.99;52.63;100632.38;5022165;28;4398;-63
2022/12/30 04:06:21;;;;;;;;;;;;;;;20.01;52.99;100635.34;5025142;28;5189;-63
2022/12/30 04:08:47;;;;;;;;;;;;;;;20.03;53.21;100634.72;5021255;28;4193;-63
2022/12/30 04:11:13;;;;;;;;;;;;;;;20.05;53.42;100635.53;5019960;28;4211;-63
2022/12/30 04:13:40;;;;;;;;;;;;;;;20.06;53.18;100642.75;5021178;28;4217;-63
2022/12/30 04:16:06;;;;;;;;;;;;;;;20.06;53.23;100636.28;5020902;28;5433;-63
2022/12/30 04:18:33;;;;;;;;;;;;;;;20.07;53.19;100638.50;5017009;28;4223;-63
2022/12/30 04:20:59;;;;;;;;;;;;;;;20.08;53.45;100645.00;5018191;28;4121;-64
2022/12/30 04:23:25;;;;;;;;;;;;;;;20.07;53.37;100637.78;5022411;28;5558;-63
2022/12/30 04:25:52;;;;;;;;;;;;;;;20.06;53.54;100645.63;5016774;28;4224;-69
2022/12/30 04:28:18;;;;;;;;;;;;;;;20.17;53.21;100646.09;4996615;28;5379;-65
2022/12/30 04:30:44;;;;;;;;;;;;;;;20.15;53.60;100657.50;5022592;28;4157;-63
2022/12/30 04:33:11;;;;;;;;;;;;;;;20.07;53.41;100644.25;5008672;28;5294;-63
2022/12/30 04:35:37;;;;;;;;;;;;;;;20.08;53.51;100657.22;5021342;28;5295;-64
2022/12/30 04:38:03;;;;;;;;;;;;;;;20.09;53.54;100655.13;5021476;28;5289;-63
2022/12/30 04:40:30;;;;;;;;;;;;;;;20.11;53.84;100657.31;5022660;28;4206;-63
2022/12/30 04:42:56;;;;;;;;;;;;;;;20.12;53.94;100653.06;5018627;28;3965;-63
2022/12/30 04:45:22;;;;;;;;;;;;;;;20.11;53.37;100654.44;5017820;28;4160;-63
2022/12/30 04:47:49;;;;;;;;;;;;;;;20.12;53.99;100665.28;5019159;28;4062;-63
2022/12/30 04:50:15;;;;;;;;;;;;;;;20.13;53.79;100660.28;5019038;28;4142;-63
2022/12/30 04:52:42;;;;;;;;;;;;;;;20.14;54.19;100658.91;5021454;28;4126;-64
2022/12/30 04:55:08;;;;;;;;;;;;;;;20.14;54.27;100665.38;5023297;28;4132;-63
2022/12/30 04:57:34;;;;;;;;;;;;;;;20.14;54.23;100670.41;5019496;28;4208;-63
2022/12/30 05:00:01;;;;;;;;;;;;;;;20.15;54.27;100677.63;5023338;28;4416;-63
2022/12/30 05:02:27;;;;;;;;;;;;;;;20.15;54.31;100675.47;5018778;28;4190;-63
2022/12/30 05:04:54;;;;;;;;;;;;;;;20.14;54.30;100685.50;5023964;28;4257;-63
2022/12/30 05:07:20;;;;;;;;;;;;;;;20.15;54.22;100689.88;5021574;28;4192;-65
2022/12/30 05:09:47;;;;;;;;;;;;;;;20.15;54.20;100697.75;5022632;28;4208;-63
2022/12/30 05:12:13;;;;;;;;;;;;;;;20.15;54.25;100694.88;5023856;28;5283;-63
2022/12/30 05:14:39;;;;;;;;;;;;;;;20.14;54.15;100705.63;5024309;28;4131;-63
2022/12/30 05:17:06;;;;;;;;;;;;;;;20.15;54.22;100712.13;5023087;28;4225;-64
2022/12/30 05:19:32;;;;;;;;;;;;;;;20.14;54.12;100711.38;5023254;28;4182;-64
2022/12/30 05:21:58;;;;;;;;;;;;;;;20.16;54.22;100713.59;5020756;28;4194;-64
2022/12/30 05:27:09;;;;;;;;;;;;;;;20.16;54.20;100725.09;5022060;28;4062;-63
2022/12/30 05:29:36;;;;;;;;;;;;;;;20.16;54.41;100720.09;5020108;28;4325;-63
2022/12/30 05:32:02;;;;;;;;;;;;;;;20.17;54.36;100721.56;5013617;28;4494;-62
2022/12/30 05:34:29;;;;;;;;;;;;;;;20.18;54.38;100722.31;5022767;28;4136;-62
2022/12/30 05:36:55;;;;;;;;;;;;;;;20.18;54.30;100725.94;5022502;28;5323;-63
2022/12/30 05:39:21;;;;;;;;;;;;;;;20.17;54.22;100733.06;5016566;28;4159;-63
2022/12/30 05:41:48;;;;;;;;;;;;;;;20.16;54.20;100730.84;5020432;28;4195;-63
2022/12/30 05:44:14;;;;;;;;;;;;;;;20.16;54.31;100733.72;5022709;28;5202;-63
2022/12/30 05:46:40;;;;;;;;;;;;;;;20.18;54.26;100748.19;5022705;28;4126;-63
2022/12/30 05:49:07;;;;;;;;;;;;;;;20.17;54.21;100741.69;5021006;28;4133;-63
2022/12/30 05:51:33;;;;;;;;;;;;;;;20.19;54.08;100738.91;5023272;28;4139;-63
2022/12/30 05:53:59;;;;;;;;;;;;;;;20.19;54.24;100756.16;5023691;28;4163;-63
2022/12/30 05:56:26;;;;;;;;;;;;;;;20.20;54.00;100768.41;5021425;28;4262;-63
2022/12/30 05:58:52;;;;;;;;;;;;;;;20.21;54.04;100767.03;5019927;28;4182;-63
2022/12/30 06:01:18;;;;;;;;;;;;;;;20.21;54.14;100779.25;5020559;28;4527;-63
2022/12/30 06:03:45;;;;;;;;;;;;;;;20.22;54.16;100774.25;5015915;28;4098;-63
2022/12/30 06:06:11;;;;;;;;;;;;;;;20.21;54.17;100781.41;5014685;28;4138;-63
2022/12/30 06:08:38;;;;;;;;;;;;;;;20.21;54.21;100787.16;5018564;28;4028;-63
2022/12/30 06:11:04;;;;;;;;;;;;;;;20.22;54.12;100785.75;5016150;28;5300;-63
2022/12/30 06:13:30;;;;;;;;;;;;;;;20.21;54.03;100784.28;5019886;28;4178;-63
2022/12/30 06:15:57;;;;;;;;;;;;;;;20.21;54.04;100796.53;5020331;28;4135;-63
2022/12/30 06:18:25;;;;;;;;;;;;;;;20.21;53.94;100804.41;5018579;28;4498;-62
2022/12/30 06:20:51;;;;;;;;;;;;;;;20.22;54.11;100803.00;5019620;28;5012;-63
2022/12/30 06:23:18;;;;;;;;;;;;;;;20.21;54.16;100802.28;5021548;28;4396;-63
2022/12/30 06:25:44;;;;;;;;;;;;;;;20.21;54.04;100805.16;5021535;28;4191;-63
2022/12/30 06:28:10;;;;;;;;;;;;;;;20.21;54.00;100805.16;5021039;28;4153;-62
2022/12/30 06:30:37;;;;;;;;;;;;;;;20.23;54.09;100804.50;5022769;28;4108;-63
2022/12/30 06:33:03;;;;;;;;;;;;;;;20.22;53.91;100803.00;5020555;28;4159;-63
2022/12/30 06:35:30;;;;;;;;;;;;;;;20.22;54.00;100808.75;5020747;28;4209;-63
2022/12/30 06:37:56;;;;;;;;;;;;;;;20.23;53.90;100804.50;5017680;28;4184;-62
2022/12/30 06:40:22;;;;;;;;;;;;;;;20.23;54.10;100810.25;5023983;28;4242;-63
2022/12/30 06:42:49;;;;;;;;;;;;;;;20.21;53.96;100808.03;5022184;28;5184;-63
2022/12/30 06:45:15;;;;;;;;;;;;;;;20.21;53.83;100808.03;5021883;28;3966;-63
2022/12/30 06:47:41;;;;;;;;;;;;;;;20.23;53.95;100816.00;5019571;28;4210;-63
2022/12/30 06:50:08;;;;;;;;;;;;;;;20.22;53.85;100814.50;5015585;28;4033;-63
2022/12/30 06:52:34;;;;;;;;;;;;;;;20.23;53.82;100821.75;5021484;28;4096;-63
2022/12/30 06:55:00;;;;;;;;;;;;;;;20.25;53.82;100824.72;5022507;28;4301;-62
2022/12/30 06:57:27;;;;;;;;;;;;;;;20.25;53.84;100818.97;5021406;28;4047;-62
2022/12/30 06:59:53;;;;;;;;;;;;;;;20.26;53.82;100826.19;5021506;28;4028;-63
2022/12/30 07:02:19;;;;;;;;;;;;;;;20.26;53.90;100826.19;5017071;28;4263;-63
2022/12/30 07:04:46;;;;;;;;;;;;;;;20.24;53.92;100837.59;5016769;28;4140;-63
2022/12/30 07:07:12;;;;;;;;;;;;;;;20.25;53.85;100831.22;5015257;28;4140;-62
2022/12/30 07:09:39;;;;;;;;;;;;;;;20.24;53.70;100838.34;5022162;28;4157;-63
2022/12/30 07:12:05;;;;;;;;;;;;;;;20.25;53.68;100839.09;5021170;28;4239;-62
2022/12/30 07:14:31;;;;;;;;;;;;;;;20.24;53.84;100846.97;5023255;28;5245;-63
2022/12/30 07:16:58;;;;;;;;;;;;;;;20.23;53.75;100856.25;5022294;28;4107;-63
2022/12/30 07:19:33;;;;;;;;;;;;;;;20.24;53.72;100863.47;5021252;28;4157;-63
2022/12/30 07:22:05;;;;;;;;;;;;;;;20.23;53.65;100856.25;5019070;28;4132;-63
2022/12/30 07:24:32;;;;;;;;;;;;;;;20.24;53.59;100864.22;5022886;28;6439;-63
2022/12/30 07:26:58;;;;;;;;;;;;;;;20.24;53.75;100869.22;5023411;28;4141;-71
2022/12/30 07:29:24;;;;;;;;;;;;;;;20.32;53.42;100863.13;5019321;28;4266;-63
2022/12/30 07:31:51;;;;;;;;;;;;;;;20.29;53.45;100862.28;5018042;28;4202;-63
2022/12/30 07:34:17;;;;;;;;;;;;;;;20.28;53.38;100869.44;5027527;28;5359;-63
2022/12/30 07:36:44;;;;;;;;;;;;;;;20.28;53.62;100869.44;5018183;28;4394;-62
2022/12/30 07:39:10;;;;;;;;;;;;;;;20.27;53.66;100876.56;5021763;28;4216;-63
2022/12/30 07:41:36;;;;;;;;;;;;;;;20.31;53.47;100891.13;5025556;28;5206;-63
2022/12/30 07:44:08;;;;;;;;;;;;;;;20.30;53.32;100889.66;5009605;28;4872;-64
2022/12/30 07:46:36;;;;;;;;;;;;;;;20.31;52.70;100888.25;5026730;28;3995;-65
2022/12/30 07:49:03;;;;;;;;;;;;;;;20.32;52.47;100889.75;5025760;28;4137;-65
2022/12/30 07:51:29;;;;;;;;;;;;;;;20.32;51.78;100898.38;5025642;28;4187;-65
2022/12/30 07:53:57;;;;;;;;;;;;;;;20.31;52.00;100873.88;5025730;28;4040;-65
2022/12/30 07:56:32;;;;;;;;;;;;;;;20.31;51.89;100885.38;5025416;28;5046;-65
2022/12/30 07:58:59;;;;;;;;;;;;;;;20.30;51.79;100898.28;5009123;28;4173;-65
2022/12/30 08:01:25;;;;;;;;;;;;;;;20.28;51.53;100898.19;5026573;28;4196;-64
2022/12/30 08:03:51;;;;;;;;;;;;;;;20.28;51.32;100910.44;5022850;28;4149;-64
2022/12/30 08:06:18;;;;;;;;;;;;;;;20.30;51.35;100906.91;5023351;28;4160;-64
2022/12/30 08:08:45;;;;;;;;;;;;;;;20.28;51.30;100904.69;5027666;28;4184;-64
2022/12/30 08:11:11;;;;;;;;;;;;;;;20.30;51.88;100904.03;5013503;28;4155;-63
2022/12/30 08:13:38;;;;;;;;;;;;;;;20.28;52.12;100903.94;5020207;28;5274;-63
2022/12/30 08:16:05;;;;;;;;;;;;;;;20.28;52.10;100906.81;5024127;28;4148;-63
2022/12/30 08:18:32;;;;;;;;;;;;;;;20.28;52.26;100921.19;5021990;28;4179;-63
2022/12/30 08:21:02;;;;;;;;;;;;;;;20.28;52.57;100906.81;5022871;28;5607;-63
2022/12/30 08:23:29;;;;;;;;;;;;;;;20.28;52.46;100921.94;5026924;28;4110;-63
2022/12/30 08:25:56;;;;;;;;;;;;;;;20.28;52.91;100924.06;5014229;28;5425;-62
2022/12/30 08:28:22;;;;;;;;;;;;;;;20.30;52.56;100927.03;5017383;28;4153;-63
2022/12/30 08:30:48;;;;;;;;;;;;;;;20.30;52.85;100929.91;5020144;28;4145;-64
2022/12/30 08:33:15;;;;;;;;;;;;;;;20.31;53.06;100942.91;5021011;28;4158;-63
2022/12/30 08:35:48;;;;;;;;;;;;;;;20.32;52.99;100941.53;5025108;28;5323;-63
2022/12/30 08:38:14;;;;;;;;;;;;;;;20.31;52.98;100948.66;5015212;28;5237;-63
2022/12/30 08:40:41;;;;;;;;;;;;;;;20.33;53.39;100948.00;5023622;28;4244;-63
2022/12/30 08:43:07;;;;;;;;;;;;;;;20.33;53.36;100937.25;5016785;28;4155;-62
2022/12/30 08:45:34;;;;;;;;;;;;;;;20.36;53.40;100944.56;5015932;28;4254;-62
2022/12/30 08:48:00;;;;;;;;;;;;;;;20.36;53.38;100938.81;5020238;28;4198;-63
2022/12/30 08:50:27;;;;;;;;;;;;;;;20.35;53.53;100933.72;5024506;28;4112;-62
2022/12/30 08:52:53;;;;;;;;;;;;;;;20.36;53.53;100929.44;5022946;28;4064;-62
2022/12/30 08:55:19;;;;;;;;;;;;;;;20.35;53.40;100937.34;5023307;28;5498;-62
2022/12/30 08:57:46;;;;;;;;;;;;;;;20.35;53.45;100928.72;5022796;28;4187;-62
2022/12/30 09:00:12;;;;;;;;;;;;;;;20.35;53.42;100937.34;5022344;28;5567;-62
2022/12/30 09:02:39;;;;;;;;;;;;;;;20.35;53.75;100937.34;5022809;28;4126;-62
2022/12/30 09:05:05;;;;;;;;;;;;;;;20.34;53.81;100938.75;5021416;28;5334;-62
2022/12/30 09:07:32;;;;;;;;;;;;;;;20.35;53.94;100945.97;5024278;28;4337;-63
2022/12/30 09:10:18;;;;;;;;;;;;;;;20.35;53.78;100948.09;5019791;28;4161;-63
2022/12/30 09:12:44;;;;;;;;;;;;;;;20.35;53.80;100954.59;5024055;28;4313;-63
2022/12/30 09:15:11;;;;;;;;;;;;;;;20.34;53.72;100953.13;5022841;28;4489;-63
2022/12/30 09:17:37;;;;;;;;;;;;;;;20.35;53.62;100954.59;5019284;28;5184;-63
2022/12/30 09:20:03;;;;;;;;;;;;;;;20.38;53.80;100961.19;5020024;28;5292;-63
2022/12/30 09:22:30;;;;;;;;;;;;;;;20.38;53.73;100952.56;5021049;28;4194;-63
2022/12/30 09:24:56;;;;;;;;;;;;;;;20.39;53.71;100960.56;5022770;28;4013;-63
2022/12/30 09:27:23;;;;;;;;;;;;;;;20.40;53.86;100956.28;5016558;28;4136;-63
2022/12/30 09:29:49;;;;;;;;;;;;;;;20.40;53.86;100962.03;5021017;28;4172;-63
2022/12/30 09:32:15;;;;;;;;;;;;;;;20.40;53.70;100949.78;5019148;28;4108;-63
2022/12/30 09:34:42;;;;;;;;;;;;;;;20.41;53.70;100952.03;5018750;28;4172;-63
2022/12/30 09:37:08;;;;;;;;;;;;;;;20.40;53.79;100950.53;5023623;28;4487;-63
2022/12/30 09:39:43;;;;;;;;;;;;;;;20.38;53.70;100953.28;5020149;28;4203;-63
2022/12/30 09:45:14;;;;;;;;;;;;;;;20.38;53.91;100944.66;4999937;28;5512;-63
2022/12/30 09:47:50;;;;;;;;;;;;;;;20.38;53.89;100947.53;5015110;28;5358;-63
2022/12/30 09:50:35;;;;;;;;;;;;;;;20.36;53.78;100941.69;4998569;28;4188;-63
2022/12/30 09:53:03;;;;;;;;;;;;;;;20.37;53.79;100940.31;5019979;28;4118;-63
2022/12/30 09:55:31;;;;;;;;;;;;;;;20.38;53.73;100947.53;5020258;28;4115;-63
2022/12/30 09:57:58;;;;;;;;;;;;;;;20.38;53.90;100947.53;5006520;28;4151;-63
2022/12/30 10:00:25;;;;;;;;;;;;;;;20.37;53.93;100940.31;4991355;28;5255;-63
2022/12/30 10:03:08;;;;;;;;;;;;;;;20.39;53.88;100937.53;4996837;28;3989;-63
2022/12/30 10:06:07;;;;;;;;;;;;;;;20.40;53.72;100933.25;5018726;28;4123;-66
2022/12/30 10:08:53;;;;;;;;;;;;;;;20.45;53.60;100940.69;5022935;28;5412;-62
2022/12/30 10:11:51;;;;;;;;;;;;;;;20.44;53.86;100938.47;5024685;28;4108;-61
2022/12/30 10:14:18;;;;;;;;;;;;;;;20.44;53.57;100933.47;4980781;28;4014;-62
2022/12/30 10:16:44;;;;;;;;;;;;;;;20.47;53.70;100929.28;5023645;28;5505;-61
2022/12/30 10:19:29;;;;;;;;;;;;;;;20.50;53.84;100928.00;5022556;28;4361;-66
2022/12/30 10:22:04;;;;;;;;;;;;;;;20.51;53.48;100926.59;5016275;28;4225;-63
2022/12/30 10:24:35;;;;;;;;;;;;;;;20.45;53.32;100919.81;4994431;28;4345;-63
2022/12/30 10:27:03;;;;;;;;;;;;;;;20.41;53.46;100917.50;4992800;28;5351;-63
2022/12/30 10:29:31;;;;;;;;;;;;;;;20.40;53.60;100913.13;5021367;28;4044;-63
2022/12/30 10:32:01;;;;;;;;;;;;;;;20.40;53.51;100916.00;5005188;28;4318;-63
2022/12/30 10:34:28;;;;;;;;;;;;;;;20.40;53.45;100918.88;5006060;28;5186;-63
2022/12/30 10:36:58;;;;;;;;;;;;;;;20.42;53.38;100918.97;5018996;28;5432;-63
2022/12/30 10:39:25;;;;;;;;;;;;;;;20.43;53.35;100926.22;4997104;28;6059;-63
2022/12/30 10:42:04;;;;;;;;;;;;;;;20.44;53.57;100921.94;4998938;28;5419;-63
2022/12/30 10:44:34;;;;;;;;;;;;;;;20.44;53.50;100918.34;5019421;28;4103;-62
2022/12/30 10:47:16;;;;;;;;;;;;;;;20.44;53.31;100910.44;5003887;28;4192;-62
2022/12/30 10:49:42;;;;;;;;;;;;;;;20.43;53.31;100897.47;5024465;28;4222;-62
2022/12/30 10:52:08;;;;;;;;;;;;;;;20.44;53.23;100895.34;5023985;28;4112;-62
2022/12/30 10:54:35;;;;;;;;;;;;;;;20.43;53.21;100894.59;4999679;28;4236;-62
2022/12/30 10:57:02;;;;;;;;;;;;;;;20.43;53.19;100897.47;5023315;28;4386;-62
2022/12/30 10:59:28;;;;;;;;;;;;;;;20.44;53.27;100887.44;5019919;28;4173;-61
2022/12/30 11:01:58;;;;;;;;;;;;;;;20.44;53.25;100887.44;5020993;28;4035;-62
2022/12/30 11:04:35;;;;;;;;;;;;;;;20.42;53.13;100887.34;4999105;28;4090;-62
2022/12/30 11:07:02;;;;;;;;;;;;;;;20.44;53.20;100881.69;5024523;28;4506;-62
2022/12/30 11:09:28;;;;;;;;;;;;;;;20.42;53.28;100872.97;5026971;28;4086;-62
2022/12/30 11:15:04;;;;;;;;;;;;;;;20.44;53.22;100863.69;5024363;28;4110;-62
2022/12/30 11:17:33;;;;;;;;;;;;;;;20.45;53.16;100876.66;5024853;28;4373;-62
2022/12/30 11:20:04;;;;;;;;;;;;;;;20.45;53.09;100868.78;5007332;28;4190;-62
2022/12/30 11:22:30;;;;;;;;;;;;;;;20.45;53.10;100860.16;5001445;28;5505;-62
2022/12/30 11:25:01;;;;;;;;;;;;;;;20.45;53.04;100853.66;5024897;28;4134;-62
2022/12/30 11:27:36;;;;;;;;;;;;;;;20.46;53.15;100867.41;5026895;28;4229;-62
2022/12/30 11:30:02;;;;;;;;;;;;;;;20.47;52.97;100863.13;5024898;28;5182;-62
2022/12/30 11:32:29;;;;;;;;;;;;;;;20.47;53.08;100868.88;5025909;28;4094;-61
2022/12/30 11:34:55;;;;;;;;;;;;;;;20.47;52.96;100873.88;5026354;28;4112;-62
2022/12/30 11:37:25;;;;;;;;;;;;;;;20.46;52.91;100858.03;5026859;28;4115;-62
2022/12/30 11:39:51;;;;;;;;;;;;;;;20.46;53.06;100861.66;5027017;28;4220;-62
2022/12/30 11:42:27;;;;;;;;;;;;;;;20.46;52.92;100855.16;5021449;28;4134;-62
2022/12/30 11:45:10;;;;;;;;;;;;;;;20.45;52.94;100863.03;5002806;28;4134;-62
2022/12/30 11:47:36;;;;;;;;;;;;;;;20.46;53.04;100858.03;5006588;28;4134;-62
2022/12/30 11:50:02;;;;;;;;;;;;;;;20.47;52.87;100856.63;4997673;28;4066;-62
2022/12/30 11:52:29;;;;;;;;;;;;;;;20.48;53.17;100853.13;5010609;28;3928;-62
2022/12/30 11:55:00;;;;;;;;;;;;;;;20.48;53.08;100853.13;5008146;28;4020;-62
2022/12/30 11:57:27;;;;;;;;;;;;;;;20.48;53.08;100847.38;5002460;28;4123;-62
2022/12/30 11:59:55;;;;;;;;;;;;;;;20.51;53.06;100845.31;5024260;28;4241;-62
2022/12/30 12:02:25;;;;;;;;;;;;;;;20.51;52.86;100840.31;5027536;28;5329;-62
2022/12/30 12:04:52;;;;;;;;;;;;;;;20.53;53.08;100831.03;5024279;28;4158;-62
2022/12/30 12:07:19;;;;;;;;;;;;;;;20.52;52.88;100835.28;5002742;28;5201;-62
2022/12/30 12:09:48;;;;;;;;;;;;;;;20.52;52.79;100826.66;5023997;28;4188;-62
2022/12/30 12:12:15;;;;;;;;;;;;;;;20.50;52.83;100833.06;5022342;28;4246;-62
2022/12/30 12:14:50;;;;;;;;;;;;;;;20.51;53.06;100828.06;5022372;28;4516;-62
2022/12/30 12:17:26;;;;;;;;;;;;;;;20.50;52.94;100821.56;5025401;28;5186;-63
2022/12/30 12:19:55;;;;;;;;;;;;;;;20.48;52.85;100818.59;5026292;28;4132;-62
2022/12/30 12:22:23;;;;;;;;;;;;;;;20.49;52.93;100814.31;4997059;28;3982;-62
2022/12/30 12:24:51;;;;;;;;;;;;;;;20.49;53.02;100814.31;5000835;28;4195;-63
2022/12/30 12:27:18;;;;;;;;;;;;;;;20.49;52.82;100813.59;5000403;28;4115;-62
2022/12/30 12:29:44;;;;;;;;;;;;;;;20.48;52.85;100809.22;4998712;28;4258;-62
2022/12/30 12:32:14;;;;;;;;;;;;;;;20.47;53.04;100805.59;5019260;28;4185;-62
2022/12/30 12:35:06;;;;;;;;;;;;;;;20.47;52.74;100808.47;5021397;28;4269;-63
2022/12/30 12:37:32;;;;;;;;;;;;;;;20.47;52.74;100802.72;4997305;28;4245;-65
2022/12/30 12:40:01;;;;;;;;;;;;;;;20.45;53.09;100796.88;5026122;28;4289;-63
2022/12/30 12:42:28;;;;;;;;;;;;;;;20.49;53.08;100796.31;5024717;28;4279;-63
2022/12/30 12:45:00;;;;;;;;;;;;;;;20.50;53.10;100801.44;5022176;28;4083;-63
2022/12/30 12:47:45;;;;;;;;;;;;;;;20.49;53.33;100797.06;5023887;28;5369;-63
2022/12/30 12:50:41;;;;;;;;;;;;;;;20.50;53.08;100798.56;5023150;28;4020;-62
2022/12/30 12:53:26;;;;;;;;;;;;;;;20.50;53.25;100786.28;4947380;28;4057;-63
2022/12/30 12:55:52;;;;;;;;;;;;;;;20.49;53.33;100779.78;5005816;28;4084;-63
2022/12/30 12:58:28;;;;;;;;;;;;;;;20.49;53.34;100776.19;5024314;28;5128;-63
2022/12/30 13:00:57;;;;;;;;;;;;;;;20.50;53.47;100780.53;5022924;28;4178;-63
2022/12/30 13:03:46;;;;;;;;;;;;;;;20.48;53.64;100766.09;5022120;28;4114;-63
2022/12/30 13:06:17;;;;;;;;;;;;;;;20.46;53.53;100766.72;5021185;28;4214;-63
2022/12/30 13:08:44;;;;;;;;;;;;;;;20.47;53.33;100771.06;5018788;28;5261;-64
2022/12/30 13:11:23;;;;;;;;;;;;;;;20.47;53.48;100765.31;5013710;28;5071;-62
2022/12/30 13:14:20;;;;;;;;;;;;;;;20.46;53.57;100760.97;4999830;28;4194;-62
2022/12/30 13:16:48;;;;;;;;;;;;;;;20.46;54.04;100742.97;4994849;28;4285;-62
2022/12/30 13:19:15;;;;;;;;;;;;;;;20.47;53.99;100748.06;5025105;28;4374;-62
2022/12/30 13:21:42;;;;;;;;;;;;;;;20.48;54.01;100740.94;5023389;28;4088;-62
2022/12/30 13:24:09;;;;;;;;;;;;;;;20.48;53.90;100743.81;5024204;28;4185;-62
2022/12/30 13:26:36;;;;;;;;;;;;;;;20.50;54.03;100731.63;5009235;28;4352;-62
2022/12/30 13:29:02;;;;;;;;;;;;;;;20.50;54.35;100729.53;5017248;28;4142;-61
2022/12/30 13:31:39;;;;;;;;;;;;;;;20.51;54.36;100725.25;4985555;28;4224;-60
2022/12/30 13:34:13;;;;;;;;;;;;;;;20.53;54.68;100720.97;4996802;28;4065;-61
2022/12/30 13:36:55;;;;;;;;;;;;;;;20.53;54.61;100709.47;4991886;28;5273;-61
2022/12/30 13:39:53;;;;;;;;;;;;;;;20.55;54.43;100709.53;4995401;28;4522;-60
2022/12/30 13:42:27;;;;;;;;;;;;;;;20.57;54.40;100721.16;4958777;28;5419;-60
2022/12/30 13:44:54;;;;;;;;;;;;;;;20.57;54.73;100706.78;5015738;28;4152;-60
2022/12/30 13:47:30;;;;;;;;;;;;;;;20.56;54.45;100696.66;4993352;28;4342;-61
2022/12/30 13:49:56;;;;;;;;;;;;;;;20.56;54.56;100702.41;5012860;28;4153;-62
2022/12/30 13:52:23;;;;;;;;;;;;;;;20.56;54.92;100708.16;5017411;28;5390;-61
2022/12/30 13:54:50;;;;;;;;;;;;;;;20.54;54.69;100711.69;5018094;28;4158;-64
2022/12/30 13:57:30;;;;;;;;;;;;;;;20.41;53.36;100698.94;5011606;28;4166;-62
2022/12/30 14:00:15;;;;;;;;;;;;;;;20.46;54.33;100697.69;5014428;28;5260;-64